Airfield :







YOU CAN JOIN US ON...

 
LOGIN :

Register | Disclaimer

   EN    FR    IT 

 









Legend :    VFR   Marginal VFR   IFR   Intensive IFR   Very Intensive IFR
Visi :
Ceiling :
>= 8 km
>= 3000ft
5 to 8 km
1000 to 3000 ft
1500m to 5 km
500 to 1000 ft
800 to 1500m
200 to 500 ft
< 800m
< 200 ft
Symbols :   Thunderstorms  Fog  Heavy snow  Heavy precipitations  Wind > 20 kt







- Airport Elevation : 626 ft


KCAR - Caribou Municipal

CURRENT METAR :
  • 231354Z AUTO 33018G25KT 3SM -SN SCT012 BKN018 OVC023 02/M01 A2913 RMK AO2 SLP871 P0000 T00221006

EXPIRED METARs :
  • 231342Z AUTO 34017G24KT 2 1/2SM -SN BR SCT013 BKN017 OVC026 02/M01 A2912 RMK AO2 P0000 T00171006
  • 231335Z AUTO 34016G22KT 1 3/4SM -SN BR SCT013 BKN021 OVC030 02/M01 A2912 RMK AO2 P0000 T00171006
  • 231305Z AUTO 34017G22KT 1 1/4SM -SN FEW013 OVC020 02/M01 A2911 RMK AO2 P0000 T00171011
  • 231254Z AUTO 34017G25KT 3/4SM -SN BR FEW010 OVC018 01/M01 A2910 RMK AO2 SLP863 P0001 T00111011
  • 231223Z AUTO 33013G21KT 3/4SM -SN BR FEW009 SCT014 OVC021 01/M01 A2910 RMK AO2 P0000 T00111011
  • 231209Z AUTO 33015G19KT 1 1/4SM -SN BR FEW009 BKN025 OVC033 01/M01 A2909 RMK AO2 P0000 T00111011
  • 231154Z AUTO 33015G20KT 1 1/4SM -SN BR FEW012 BKN023 OVC039 01/M01 A2909 RMK AO2 SLP860 P0001 60002 70062 T00111011 10017 20006 53009

TAF KCAR
Valid from the 23 at 13:00 until the 24 at 12:00 UTC


231247Z 2313/2412 34012G22KT 1 1/2SM -SN BR SCT015 OVC025
TEMPO 2313/2315 3/4SM -SN BR SCT008 OVC015
FM231500 34015G30KT P6SM VCSH OVC025
FM232000 33018G25KT P6SM BKN030
FM240200 29012G20KT P6SM SKC
KZBW FIR / North America



MET'MAP, your aeronautical weather chart ! - Copyright ORBIFLY December 2007 - Disclaimer

ORBIFLY MET'MAP TEAM :

Programming & Development : Alexandra Zaïnal
Concept & Development : Baudouin d'Aumeries
Co-Development & Prog : Marc-Olivier Méhu
Technical & hardware support : Manuel Goepfert

Contact : metmap@orbifly.com




SOURCES & CREDITS :

   NOAA